This is the latest recevied weather packets stored in our database for station/object DH6PF-10. If no packets are shown the sender has not sent any weather packets the latest 10 day(s).
| Time | Temp. | Humidity | Pressure | Rain* | Wind** | Luminosity | Snow |
|---|---|---|---|---|---|---|---|
| 1787765510 | 24.44° C | 67% | 1016.4 hPa | - | - | - | - |
| 1787764910 | 24.44° C | 66% | 1016.5 hPa | - | - | - | - |
| 1787764310 | 25° C | 65% | 1016.8 hPa | - | - | - | - |
| 1787763710 | 25° C | 63% | 1016.4 hPa | - | - | - | - |
| 1787763110 | 25.56° C | 62% | 1016.5 hPa | - | - | - | - |
| 1787762510 | 25.56° C | 61% | 1016.4 hPa | - | - | - | - |
| 1787761910 | 25.56° C | 63% | 1016.8 hPa | - | - | - | - |
| 1787761310 | 25.56° C | 63% | 1016.8 hPa | - | - | - | - |
| 1787760710 | 25.56° C | 63% | 1016.5 hPa | - | - | - | - |
| 1787760110 | 25.56° C | 63% | 1016.8 hPa | - | - | - | - |
| 1787759510 | 25.56° C | 63% | 1017 hPa | - | - | - | - |
| 1787758910 | 25.56° C | 61% | 1016.8 hPa | - | - | - | - |
| 1787758310 | 25.56° C | 61% | 1017 hPa | - | - | - | - |
| 1787757710 | 25.56° C | 60% | 1016.8 hPa | - | - | - | - |
| 1787757110 | 25.56° C | 60% | 1016.8 hPa | - | - | - | - |
| 1787756510 | 25.56° C | 59% | 1017.1 hPa | - | - | - | - |
| 1787755910 | 25.56° C | 60% | 1017.2 hPa | - | - | - | - |
| 1787755310 | 26.11° C | 57% | 1017.2 hPa | - | - | - | - |
| 1787754710 | 27.78° C | 53% | 1017.1 hPa | - | - | - | - |
| 1787754111 | 26.11° C | 56% | 1017.1 hPa | - | - | - | - |
| 1787753510 | 26.11° C | 59% | 1017.2 hPa | - | - | - | - |
| 1787752910 | 27.22° C | 53% | 1017.4 hPa | - | - | - | - |
| 1787752310 | 27.22° C | 53% | 1017.5 hPa | - | - | - | - |
| 1787751710 | 26.11° C | 54% | 1017.3 hPa | - | - | - | - |
| 1787751110 | 26.11° C | 55% | 1017.6 hPa | - | - | - | - |
* Rain since midnight (hover to see other rain measurements)
** Current wind speed in m/s (hover to see current wind gust speed)